Time;durP1;ratioP1;P1;durP2;ratioP2;P2;SDS_P1;SDS_P2;PMS_P1;PMS_P2;Temp;Humidity;BMP_temperature;BMP_pressure;BME280_temperature;BME280_humidity;BME280_pressure;Samples;Min_cycle;Max_cycle;Signal;HPM_P1;HPM_P2
2022/07/20 00:01:02;;;;;;;6.90;6.20;;;;;;;23.63;62.00;98138.44;4123382;28;21087;-79
2022/07/20 00:03:06;;;;;;;7.30;5.90;;;;;;;23.59;62.91;98134.47;4108110;28;21110;-80
2022/07/20 00:05:09;;;;;;;6.50;5.80;;;;;;;23.56;62.87;98135.69;4105434;28;21206;-79
2022/07/20 00:07:13;;;;;;;8.10;6.60;;;;;;;23.54;62.54;98134.22;4107094;28;20670;-79
2022/07/20 00:11:38;;;;;;;6.87;5.63;;;;;;;23.49;63.51;98139.28;4112298;28;20710;-80
2022/07/20 00:13:41;;;;;;;6.77;5.40;;;;;;;23.45;63.15;98133.47;4126159;28;20646;-79
2022/07/20 00:15:44;;;;;;;8.23;6.00;;;;;;;23.43;63.88;98145.31;4126767;28;21232;-79
2022/07/20 00:17:47;;;;;;;6.60;5.53;;;;;;;23.41;63.32;98142.84;4121669;28;20661;-79
2022/07/20 00:19:50;;;;;;;6.87;5.77;;;;;;;23.40;64.00;98138.50;4124846;28;20641;-79
2022/07/20 00:21:55;;;;;;;6.27;5.67;;;;;;;23.39;63.88;98142.19;4093364;28;20669;-80
2022/07/20 00:23:58;;;;;;;6.63;5.80;;;;;;;23.37;64.18;98143.38;4124585;28;20631;-79
2022/07/20 00:26:03;;;;;;;7.20;6.00;;;;;;;23.35;65.11;98140.91;4110112;28;20689;-79
2022/07/20 00:28:06;;;;;;;9.37;6.10;;;;;;;23.33;64.08;98134.94;4124299;28;20627;-79
2022/07/20 00:30:10;;;;;;;8.17;6.00;;;;;;;23.32;64.14;98140.47;4106478;28;20728;-79
2022/07/20 00:32:13;;;;;;;7.03;6.27;;;;;;;23.29;64.26;98143.47;4110806;28;21106;-79
2022/07/20 00:34:17;;;;;;;7.07;5.73;;;;;;;23.28;64.12;98139.97;4108603;28;20636;-79
2022/07/20 00:36:20;;;;;;;7.00;5.53;;;;;;;23.24;63.74;98141.38;4107107;28;21244;-79
2022/07/20 00:38:23;;;;;;;7.63;6.10;;;;;;;23.23;63.96;98137.03;4125850;28;20700;-79
2022/07/20 00:40:26;;;;;;;7.67;6.20;;;;;;;23.22;64.76;98143.38;4123720;28;20631;-79
2022/07/20 00:42:31;;;;;;;6.97;6.17;;;;;;;23.18;64.95;98135.09;4125604;28;20635;-79
2022/07/20 00:44:34;;;;;;;6.67;5.90;;;;;;;23.16;64.00;98131.81;4125601;28;20709;-79
2022/07/20 00:46:39;;;;;;;7.10;6.00;;;;;;;23.15;64.42;98132.81;4125652;28;21213;-79
2022/07/20 00:48:43;;;;;;;7.90;6.07;;;;;;;23.11;63.87;98126.19;4109287;28;20653;-79
2022/07/20 00:50:46;;;;;;;8.60;6.00;;;;;;;23.08;64.10;98130.03;4093138;28;21062;-79
2022/07/20 00:52:49;;;;;;;6.67;5.60;;;;;;;23.06;64.65;98125.91;4125673;28;21298;-79
2022/07/20 00:54:53;;;;;;;9.73;6.37;;;;;;;22.97;64.31;98132.31;4127032;28;21231;-79
2022/07/20 00:56:56;;;;;;;7.37;6.60;;;;;;;22.92;64.10;98130.16;4122589;28;20740;-79
2022/07/20 00:59:02;;;;;;;8.23;6.10;;;;;;;22.91;64.23;98135.66;4105690;28;20735;-79
2022/07/20 01:01:05;;;;;;;7.50;5.83;;;;;;;22.88;64.69;98133.34;4111805;28;20701;-79
2022/07/20 01:03:08;;;;;;;7.97;6.53;;;;;;;22.86;65.04;98130.88;4125090;28;21022;-79
2022/07/20 01:05:14;;;;;;;10.83;6.07;;;;;;;22.86;65.70;98135.38;4123067;28;20638;-79
2022/07/20 01:07:18;;;;;;;8.57;6.73;;;;;;;22.85;65.19;98125.72;4124443;28;20708;-79
2022/07/20 01:09:21;;;;;;;7.10;6.40;;;;;;;22.82;64.90;98124.28;4122856;28;20645;-79
2022/07/20 01:11:24;;;;;;;9.10;5.90;;;;;;;22.81;65.46;98121.78;4109455;28;20625;-79
2022/07/20 01:13:27;;;;;;;7.50;6.00;;;;;;;22.76;65.47;98124.13;4121578;28;20692;-79
2022/07/20 01:15:32;;;;;;;7.00;6.23;;;;;;;22.73;65.71;98124.50;4108659;28;20752;-79
2022/07/20 01:17:35;;;;;;;9.47;6.90;;;;;;;22.70;65.50;98119.53;4118640;28;20647;-79
2022/07/20 01:19:46;;;;;;;12.03;6.03;;;;;;;22.68;66.03;98121.56;4107501;28;20674;-79
2022/07/20 01:21:51;;;;;;;6.73;6.13;;;;;;;22.63;66.51;98117.75;4106873;28;20714;-79
2022/07/20 01:23:54;;;;;;;7.00;6.30;;;;;;;22.60;65.70;98118.97;4124189;28;20634;-79
2022/07/20 01:25:57;;;;;;;8.60;6.10;;;;;;;22.58;66.48;98118.34;4110156;28;20696;-79
2022/07/20 01:28:00;;;;;;;8.90;6.23;;;;;;;22.58;65.55;98115.66;4123528;28;20636;-79
2022/07/20 01:30:04;;;;;;;9.47;6.53;;;;;;;22.56;65.87;98117.66;4105616;28;20650;-79
2022/07/20 01:32:07;;;;;;;7.83;6.13;;;;;;;22.57;65.72;98121.97;4111284;28;20634;-80
2022/07/20 01:34:10;;;;;;;10.13;6.33;;;;;;;22.56;66.11;98117.66;4126414;28;20638;-79
2022/07/20 01:36:13;;;;;;;8.23;6.80;;;;;;;22.55;66.02;98118.69;4124014;28;21221;-79
2022/07/20 01:38:18;;;;;;;8.70;5.80;;;;;;;22.54;66.02;98118.88;4106695;28;20664;-79
2022/07/20 01:40:21;;;;;;;7.90;5.90;;;;;;;22.52;66.26;98126.16;4124294;28;21111;-79
2022/07/20 01:42:24;;;;;;;6.63;5.93;;;;;;;22.50;65.94;98115.72;4107895;28;21106;-79
2022/07/20 01:44:27;;;;;;;7.40;6.60;;;;;;;22.48;66.51;98115.06;4124415;28;21041;-79
2022/07/20 01:46:31;;;;;;;9.17;6.30;;;;;;;22.43;67.05;98122.75;4108833;28;20644;-79
2022/07/20 01:48:34;;;;;;;6.87;5.77;;;;;;;22.37;66.24;98123.47;4112013;28;20643;-79
2022/07/20 01:50:38;;;;;;;8.03;6.70;;;;;;;22.35;66.60;98121.97;4106946;28;20642;-79
2022/07/20 01:52:41;;;;;;;12.30;6.50;;;;;;;22.33;66.93;98127.47;4122916;28;20640;-79
2022/07/20 01:54:45;;;;;;;6.77;6.07;;;;;;;22.29;66.71;98123.50;4124193;28;20665;-79
2022/07/20 01:56:49;;;;;;;8.63;5.90;;;;;;;22.28;65.74;98121.00;4108982;28;20703;-79
2022/07/20 01:58:52;;;;;;;9.17;6.17;;;;;;;22.26;65.70;98126.50;4106834;28;20638;-79
2022/07/20 02:00:57;;;;;;;7.63;6.60;;;;;;;22.24;66.83;98125.88;4123438;28;20631;-79
2022/07/20 02:03:00;;;;;;;10.40;6.93;;;;;;;22.21;66.79;98117.44;4112137;28;20653;-79
2022/07/20 02:05:03;;;;;;;8.30;6.17;;;;;;;22.20;65.72;98121.03;4107604;28;20636;-79
2022/07/20 02:07:06;;;;;;;9.20;6.97;;;;;;;22.19;66.94;98118.56;4108298;28;21132;-79
2022/07/20 02:09:09;;;;;;;7.63;6.70;;;;;;;22.17;66.02;98109.94;4125024;28;20673;-82
2022/07/20 02:11:14;;;;;;;8.57;7.00;;;;;;;22.15;66.18;98111.97;4111353;28;20693;-81
2022/07/20 02:13:17;;;;;;;9.40;6.80;;;;;;;22.11;66.97;98114.13;4122386;28;20684;-82
2022/07/20 02:17:37;;;;;;;7.60;6.53;;;;;;;22.06;66.35;98118.31;4126341;28;20740;-82
2022/07/20 02:19:40;;;;;;;11.57;7.37;;;;;;;22.03;67.20;98118.66;4128284;28;21227;-82
2022/07/20 02:21:47;;;;;;;9.13;6.50;;;;;;;22.01;68.41;98132.13;4127964;28;20753;-82
2022/07/20 02:23:50;;;;;;;6.80;6.10;;;;;;;22.00;67.00;98121.69;4127522;28;20642;-82
2022/07/20 02:25:53;;;;;;;7.80;6.50;;;;;;;21.98;66.73;98129.81;4128510;28;20635;-82
2022/07/20 02:27:58;;;;;;;7.93;6.60;;;;;;;21.96;67.42;98133.66;4126152;28;20710;-82
2022/07/20 02:30:01;;;;;;;7.43;6.60;;;;;;;21.94;66.85;98136.47;4123258;28;20627;-82
2022/07/20 02:32:04;;;;;;;8.10;6.60;;;;;;;21.90;67.25;98129.84;4109259;28;20644;-82
2022/07/20 02:34:07;;;;;;;7.43;6.60;;;;;;;21.90;66.55;98129.03;4115648;28;20720;-82
2022/07/20 02:36:10;;;;;;;7.40;6.33;;;;;;;21.88;67.97;98142.47;4131131;28;20705;-82
2022/07/20 02:38:13;;;;;;;7.53;5.90;;;;;;;21.81;67.54;98138.03;4110473;28;20656;-82
2022/07/20 02:40:17;;;;;;;8.40;6.53;;;;;;;21.77;67.28;98134.91;4109598;28;20622;-82
2022/07/20 02:42:20;;;;;;;7.63;6.20;;;;;;;21.72;68.01;98133.75;4108493;28;20660;-82
2022/07/20 02:44:24;;;;;;;9.50;6.77;;;;;;;21.61;67.65;98128.00;4109790;28;20648;-82
2022/07/20 02:46:28;;;;;;;9.07;6.30;;;;;;;21.52;69.28;98129.84;4127471;28;20986;-82
2022/07/20 02:48:31;;;;;;;6.67;5.70;;;;;;;21.43;68.53;98130.03;4109457;28;20648;-82
2022/07/20 02:50:37;;;;;;;6.97;6.20;;;;;;;21.34;70.04;98125.75;4128387;28;20676;-82
2022/07/20 02:52:40;;;;;;;9.83;6.87;;;;;;;21.27;70.86;98134.53;4111745;28;20694;-82
2022/07/20 02:54:43;;;;;;;11.17;6.50;;;;;;;21.23;69.20;98128.75;4106451;28;21056;-82
2022/07/20 02:56:46;;;;;;;7.20;6.50;;;;;;;21.21;68.68;98130.72;4088615;28;20655;-82
2022/07/20 02:58:49;;;;;;;9.13;6.77;;;;;;;21.19;69.10;98124.78;4089331;29;21083;-82
2022/07/20 03:00:54;;;;;;;11.07;7.07;;;;;;;21.21;69.15;98129.91;4125868;28;20721;-82
2022/07/20 03:02:59;;;;;;;8.97;6.97;;;;;;;21.25;68.64;98141.84;4124083;28;20698;-82
2022/07/20 03:05:02;;;;;;;8.60;6.77;;;;;;;21.29;70.13;98144.00;4110944;28;21023;-82
2022/07/20 03:07:05;;;;;;;8.00;7.20;;;;;;;21.30;69.51;98151.78;4109071;28;20672;-82
2022/07/20 03:09:08;;;;;;;10.93;7.17;;;;;;;21.28;69.46;98143.16;4110328;28;20646;-82
2022/07/20 03:11:12;;;;;;;8.50;6.60;;;;;;;21.28;70.33;98148.47;4111747;28;20696;-82
2022/07/20 03:13:15;;;;;;;9.40;7.10;;;;;;;21.28;68.97;98145.00;4112109;28;21076;-82
2022/07/20 03:15:18;;;;;;;7.47;6.47;;;;;;;21.26;70.09;98140.84;4108759;28;20643;-82
2022/07/20 03:17:23;;;;;;;7.47;6.60;;;;;;;21.26;69.42;98148.81;4128290;28;21250;-82
2022/07/20 03:19:26;;;;;;;8.60;6.93;;;;;;;21.24;68.46;98145.50;4111467;28;20641;-82
2022/07/20 03:21:29;;;;;;;10.37;7.03;;;;;;;21.23;70.53;98141.19;4108354;28;20647;-81
2022/07/20 03:23:32;;;;;;;12.10;7.73;;;;;;;21.21;70.85;98141.34;4122177;28;20689;-82
2022/07/20 03:25:35;;;;;;;8.90;6.97;;;;;;;21.15;70.40;98141.19;4104925;28;20634;-82
2022/07/20 03:27:38;;;;;;;7.77;6.67;;;;;;;21.10;69.83;98151.50;4114249;28;21175;-82
2022/07/20 03:29:41;;;;;;;8.93;7.27;;;;;;;21.06;71.87;98143.03;4126457;28;20648;-82
2022/07/20 03:31:44;;;;;;;7.80;6.47;;;;;;;21.03;70.14;98142.53;4107043;28;20640;-81
2022/07/20 03:33:49;;;;;;;10.90;7.53;;;;;;;21.02;69.20;98143.56;4126089;28;20647;-81
2022/07/20 03:35:52;;;;;;;9.83;6.70;;;;;;;20.97;69.12;98141.41;4108939;28;20652;-81
2022/07/20 03:37:55;;;;;;;7.57;6.77;;;;;;;20.97;70.36;98148.50;4123945;28;20757;-82
2022/07/20 03:39:58;;;;;;;10.70;7.70;;;;;;;20.95;70.14;98139.91;4124985;28;20633;-82
2022/07/20 03:42:01;;;;;;;8.87;7.90;;;;;;;20.93;71.30;98142.72;4126266;28;20649;-82
2022/07/20 03:44:04;;;;;;;11.20;7.00;;;;;;;20.91;69.93;98149.19;4125000;28;21692;-82
2022/07/20 03:46:07;;;;;;;10.40;7.60;;;;;;;20.86;71.47;98146.22;4125177;28;20672;-82
2022/07/20 03:48:10;;;;;;;10.10;7.60;;;;;;;20.85;71.28;98148.03;4127379;28;20625;-82
2022/07/20 03:50:15;;;;;;;9.80;7.70;;;;;;;20.83;71.60;98142.06;4111103;28;20634;-81
2022/07/20 03:52:18;;;;;;;12.10;8.90;;;;;;;20.82;71.12;98147.53;4108381;28;20641;-82
2022/07/20 03:54:22;;;;;;;9.97;8.13;;;;;;;20.80;72.25;98146.88;4116637;28;20671;-82
2022/07/20 03:56:25;;;;;;;12.37;7.60;;;;;;;20.80;71.30;98146.88;4108204;28;20693;-82
2022/07/20 03:58:28;;;;;;;10.60;7.77;;;;;;;20.80;70.35;98151.38;4111837;28;20641;-82
2022/07/20 04:00:31;;;;;;;11.90;8.90;;;;;;;20.78;71.39;98153.31;4111056;28;20634;-82
2022/07/20 04:02:35;;;;;;;8.60;7.50;;;;;;;20.76;72.54;98150.84;4110333;28;20722;-82
2022/07/20 04:04:38;;;;;;;9.17;8.00;;;;;;;20.74;71.03;98150.19;4126391;28;20629;-82
2022/07/20 04:06:42;;;;;;;11.13;8.10;;;;;;;20.74;72.36;98152.03;4111290;28;21265;-82
2022/07/20 04:08:48;;;;;;;8.60;7.50;;;;;;;20.73;73.25;98147.69;4127103;28;20641;-82
2022/07/20 04:10:51;;;;;;;9.63;7.60;;;;;;;20.72;71.77;98152.19;4111351;28;20637;-82
2022/07/20 04:12:54;;;;;;;10.90;8.20;;;;;;;20.73;72.40;98153.81;4106448;28;20642;-82
2022/07/20 04:14:57;;;;;;;8.90;8.00;;;;;;;20.74;71.54;98152.84;4107187;28;20655;-82
2022/07/20 04:17:00;;;;;;;11.97;7.97;;;;;;;20.76;71.48;98150.03;4121950;28;20738;-82
2022/07/20 04:19:03;;;;;;;11.40;7.83;;;;;;;20.75;71.51;98151.84;4127173;28;20639;-82
2022/07/20 04:21:07;;;;;;;9.87;8.53;;;;;;;20.78;72.41;98154.19;4112473;28;20672;-82
2022/07/20 04:23:12;;;;;;;9.50;8.23;;;;;;;20.80;71.38;98150.34;4111737;28;20671;-82
2022/07/20 04:25:15;;;;;;;12.07;8.30;;;;;;;20.82;71.75;98158.13;4107545;28;20649;-82
2022/07/20 04:27:18;;;;;;;9.23;8.00;;;;;;;20.82;71.75;98153.69;4107482;28;20647;-82
2022/07/20 04:29:22;;;;;;;9.70;8.30;;;;;;;20.86;72.57;98156.81;4111255;28;20625;-82
2022/07/20 04:31:25;;;;;;;8.90;7.40;;;;;;;20.89;70.21;98151.19;4126478;28;20651;-81
2022/07/20 04:33:28;;;;;;;11.10;8.33;;;;;;;20.92;70.82;98153.50;4122935;28;20653;-82
2022/07/20 04:35:31;;;;;;;12.63;8.90;;;;;;;20.97;72.03;98153.81;4127191;28;20640;-82
2022/07/20 04:37:34;;;;;;;8.80;7.90;;;;;;;21.00;72.84;98156.13;4109368;28;20706;-82
2022/07/20 04:39:39;;;;;;;11.40;8.10;;;;;;;21.03;70.84;98158.47;4109108;28;21162;-82
2022/07/20 04:41:42;;;;;;;10.10;7.60;;;;;;;21.07;71.03;98165.09;4124190;28;20646;-82
2022/07/20 04:43:45;;;;;;;10.93;8.40;;;;;;;21.09;71.14;98171.06;4123123;28;20660;-82
2022/07/20 04:45:48;;;;;;;9.60;8.17;;;;;;;21.13;71.88;98161.78;4125940;28;20637;-81
2022/07/20 04:47:59;;;;;;;8.43;7.50;;;;;;;21.15;72.24;98165.91;4107495;28;20665;-82
2022/07/20 04:50:02;;;;;;;9.10;7.30;;;;;;;21.18;70.48;98168.22;4109493;28;20626;-82
2022/07/20 04:52:05;;;;;;;11.67;7.90;;;;;;;21.18;71.22;98159.44;4127700;28;21225;-82
2022/07/20 04:54:18;;;;;;;11.07;7.87;;;;;;;21.22;71.73;98174.84;4108538;28;20631;-82
2022/07/20 04:56:22;;;;;;;12.73;8.20;;;;;;;21.26;70.27;98170.03;4108351;28;20652;-82
2022/07/20 04:58:26;;;;;;;11.37;8.13;;;;;;;21.29;71.33;98171.38;4125492;28;20747;-82
2022/07/20 05:00:32;;;;;;;9.50;7.30;;;;;;;21.32;71.44;98173.69;4125723;28;21518;-82
2022/07/20 05:02:35;;;;;;;9.37;7.53;;;;;;;21.39;70.99;98169.38;4124773;28;21214;-82
2022/07/20 05:04:38;;;;;;;9.60;7.93;;;;;;;21.43;70.94;98170.66;4119340;28;20664;-82
2022/07/20 05:06:42;;;;;;;12.00;7.67;;;;;;;21.49;69.98;98170.00;4108663;28;20653;-82
2022/07/20 05:08:45;;;;;;;8.83;7.17;;;;;;;21.53;70.52;98168.69;4109001;28;21293;-82
2022/07/20 05:10:51;;;;;;;10.47;8.00;;;;;;;21.53;69.28;98171.34;4121515;28;20657;-82
2022/07/20 05:12:56;;;;;;;12.67;8.67;;;;;;;21.57;68.82;98177.13;4121267;28;20639;-82
2022/07/20 05:14:59;;;;;;;10.30;8.13;;;;;;;21.59;69.70;98170.66;4106685;28;20642;-81
2022/07/20 05:17:02;;;;;;;9.77;7.40;;;;;;;21.67;69.34;98169.81;4123763;28;20971;-82
2022/07/20 05:19:05;;;;;;;14.23;8.20;;;;;;;21.69;69.09;98173.94;4125261;28;20689;-82
2022/07/20 05:21:15;;;;;;;23.93;8.20;;;;;;;21.76;69.91;98171.44;4108100;28;21049;-82
2022/07/20 05:23:19;;;;;;;10.43;7.83;;;;;;;21.84;70.79;98166.91;4109915;28;20737;-85
2022/07/20 05:25:22;;;;;;;8.17;7.30;;;;;;;21.92;69.37;98170.38;4123367;28;21080;-82
2022/07/20 05:27:31;;;;;;;12.67;7.53;;;;;;;21.98;69.70;98168.84;4109541;28;20649;-82
2022/07/20 05:29:35;;;;;;;11.60;6.90;;;;;;;22.05;69.03;98167.16;4110925;28;20655;-83
2022/07/20 05:31:38;;;;;;;9.23;7.70;;;;;;;22.12;69.76;98168.13;4125286;28;21002;-82
2022/07/20 05:33:42;;;;;;;11.13;7.33;;;;;;;22.23;70.34;98173.06;4122511;28;21268;-83
2022/07/20 05:35:45;;;;;;;12.43;8.20;;;;;;;22.33;69.97;98169.19;4104938;28;21220;-83
2022/07/20 05:37:48;;;;;;;9.47;8.40;;;;;;;22.44;70.35;98169.59;4103977;28;20677;-83
2022/07/20 05:39:51;;;;;;;9.70;8.03;;;;;;;22.57;71.23;98169.03;4104596;28;20622;-83
2022/07/20 05:41:54;;;;;;;14.43;8.43;;;;;;;22.69;69.99;98167.59;4108346;28;20623;-83
2022/07/20 05:43:57;;;;;;;9.50;8.00;;;;;;;22.83;69.33;98162.34;4112830;28;20661;-83
2022/07/20 05:46:02;;;;;;;10.00;7.40;;;;;;;22.99;69.09;98164.91;4105679;28;21031;-82
2022/07/20 05:48:10;;;;;;;8.10;7.30;;;;;;;23.19;68.47;98165.03;4122283;28;20625;-84
2022/07/20 05:50:13;;;;;;;17.90;8.37;;;;;;;23.55;68.30;98167.84;4103743;28;20740;-84
2022/07/20 05:52:16;;;;;;;8.67;7.87;;;;;;;23.94;67.45;98170.06;4105400;28;20649;-83
2022/07/20 05:54:19;;;;;;;8.50;7.43;;;;;;;24.30;66.81;98178.91;4123928;28;21072;-83
2022/07/20 05:56:22;;;;;;;10.10;7.73;;;;;;;24.64;65.34;98183.44;4121335;28;20651;-83
2022/07/20 05:58:25;;;;;;;9.37;7.20;;;;;;;25.00;65.12;98186.88;4117219;28;20781;-83
2022/07/20 06:00:29;;;;;;;9.17;7.47;;;;;;;25.30;65.05;98188.38;4121500;28;21145;-83
2022/07/20 06:02:33;;;;;;;10.70;7.23;;;;;;;25.51;64.86;98188.34;4104584;28;20683;-83
2022/07/20 06:04:37;;;;;;;13.30;7.10;;;;;;;25.71;63.85;98184.81;4109230;28;20709;-83
2022/07/20 06:06:42;;;;;;;11.67;7.80;;;;;;;25.91;64.61;98193.78;4121198;28;20745;-82
2022/07/20 06:08:45;;;;;;;9.03;7.40;;;;;;;26.20;63.21;98191.66;4117705;28;22206;-88
2022/07/20 06:11:09;;;;;;;8.67;6.97;;;;;;;26.56;63.58;98195.72;4122262;28;20627;-85
2022/07/20 06:13:12;;;;;;;8.83;6.80;;;;;;;26.89;62.96;98200.16;4127822;28;20627;-84
2022/07/20 06:15:15;;;;;;;8.97;7.20;;;;;;;27.16;62.45;98208.03;4131515;28;20632;-84
2022/07/20 06:17:18;;;;;;;12.57;7.80;;;;;;;27.45;61.50;98206.81;4125951;28;20646;-83
2022/07/20 06:19:23;;;;;;;9.70;7.17;;;;;;;27.75;60.43;98209.69;4123493;28;20727;-83
2022/07/20 06:21:27;;;;;;;8.30;7.27;;;;;;;28.05;60.38;98202.81;4109597;28;20640;-83
2022/07/20 06:23:30;;;;;;;8.30;7.00;;;;;;;28.31;59.33;98214.31;4105218;28;20751;-83
2022/07/20 06:25:33;;;;;;;8.13;7.30;;;;;;;28.54;59.63;98209.28;4119701;28;21013;-85
2022/07/20 06:27:37;;;;;;;8.10;7.30;;;;;;;28.78;58.57;98213.94;4123553;28;21015;-82
2022/07/20 06:29:40;;;;;;;11.83;7.30;;;;;;;28.98;58.40;98223.50;4116912;28;21007;-81
2022/07/20 06:31:43;;;;;;;9.90;7.57;;;;;;;29.13;57.55;98224.84;4120532;28;21082;-81
2022/07/20 06:34:08;;;;;;;8.60;6.90;;;;;;;29.34;58.30;98232.59;4108115;28;20726;-82
2022/07/20 06:36:13;;;;;;;7.93;6.53;;;;;;;29.58;58.66;98234.47;4124452;28;21066;-82
2022/07/20 06:38:16;;;;;;;9.40;7.00;;;;;;;29.77;56.64;98238.84;4125126;28;20641;-82
2022/07/20 06:40:19;;;;;;;8.60;6.63;;;;;;;29.95;56.91;98234.38;4109253;28;20625;-82
2022/07/20 06:42:22;;;;;;;10.83;6.53;;;;;;;30.12;58.21;98236.25;4125945;28;20638;-82
2022/07/20 06:44:26;;;;;;;11.43;6.97;;;;;;;30.34;55.64;98240.19;4122584;28;20763;-82
2022/07/20 06:46:29;;;;;;;7.47;6.60;;;;;;;30.55;56.22;98237.00;4107050;28;20639;-82
2022/07/20 06:48:34;;;;;;;9.73;6.10;;;;;;;30.80;56.19;98243.94;4104709;28;20993;-82
2022/07/20 06:50:37;;;;;;;6.80;6.20;;;;;;;30.99;55.43;98240.19;4118813;28;20659;-81
2022/07/20 06:52:42;;;;;;;8.10;6.20;;;;;;;31.17;55.88;98246.34;4121670;28;20650;-82
2022/07/20 06:54:45;;;;;;;7.70;6.60;;;;;;;31.41;55.44;98248.09;4105548;28;20785;-82
2022/07/20 06:56:48;;;;;;;9.70;6.70;;;;;;;31.52;54.94;98250.00;4129153;28;21062;-82
2022/07/20 06:58:51;;;;;;;9.70;6.80;;;;;;;31.70;54.95;98252.59;4125870;28;20670;-82
2022/07/20 07:00:55;;;;;;;6.90;6.20;;;;;;;31.93;55.15;98262.41;4126222;28;20623;-82
2022/07/20 07:02:58;;;;;;;6.93;6.23;;;;;;;32.13;54.37;98254.75;4122885;28;20649;-81
2022/07/20 07:05:01;;;;;;;10.07;6.10;;;;;;;32.29;53.94;98251.31;4111089;28;21190;-82
2022/07/20 07:07:04;;;;;;;6.83;6.13;;;;;;;32.50;54.25;98250.72;4109904;28;20667;-82
2022/07/20 07:09:09;;;;;;;7.30;5.63;;;;;;;32.64;52.70;98242.13;4111846;28;20676;-82
2022/07/20 07:11:12;;;;;;;9.30;6.40;;;;;;;32.81;52.66;98245.72;4106508;28;20674;-81
2022/07/20 07:13:15;;;;;;;6.13;5.53;;;;;;;32.94;53.20;98242.75;4108546;28;20699;-81
2022/07/20 07:15:18;;;;;;;6.70;5.90;;;;;;;33.07;51.82;98243.28;4123217;28;20719;-82
2022/07/20 07:17:22;;;;;;;8.03;5.20;;;;;;;33.26;52.67;98242.00;4124428;28;20643;-82
2022/07/20 07:19:25;;;;;;;9.03;5.33;;;;;;;33.36;51.08;98243.00;4126227;28;20654;-83
2022/07/20 07:21:28;;;;;;;7.30;5.70;;;;;;;33.51;50.66;98247.88;4108619;28;20646;-82
2022/07/20 07:23:31;;;;;;;8.03;5.43;;;;;;;33.64;50.84;98245.69;4110374;28;21034;-82
2022/07/20 07:25:36;;;;;;;7.30;5.50;;;;;;;33.89;49.96;98254.22;4107902;28;21055;-82
2022/07/20 07:27:39;;;;;;;7.80;5.13;;;;;;;34.04;50.05;98243.63;4124629;28;20648;-83
2022/07/20 07:29:42;;;;;;;7.33;5.73;;;;;;;34.17;49.35;98244.09;4110596;28;20712;-82
2022/07/20 07:31:45;;;;;;;6.07;5.00;;;;;;;34.31;48.56;98243.50;4112579;28;20644;-82
2022/07/20 07:33:48;;;;;;;7.13;4.60;;;;;;;34.42;48.20;98239.88;4110013;28;21053;-83
2022/07/20 07:35:52;;;;;;;7.40;4.63;;;;;;;34.59;48.40;98240.63;4112558;28;20647;-83
2022/07/20 07:37:55;;;;;;;5.23;4.70;;;;;;;34.75;48.05;98234.34;4111725;28;20638;-82
2022/07/20 07:39:58;;;;;;;6.30;5.13;;;;;;;34.86;47.87;98234.19;4123849;28;20758;-82
2022/07/20 07:42:03;;;;;;;7.33;5.20;;;;;;;35.02;47.46;98246.91;4114256;28;21208;-83
2022/07/20 07:44:12;;;;;;;5.03;4.53;;;;;;;35.13;46.79;98239.69;4110500;28;20644;-83
2022/07/20 07:46:15;;;;;;;6.30;4.80;;;;;;;35.15;46.26;98240.25;4096297;28;20649;-83
2022/07/20 07:48:20;;;;;;;6.90;4.70;;;;;;;35.18;46.61;98243.25;4108514;28;20664;-83
2022/07/20 07:50:23;;;;;;;10.43;5.37;;;;;;;35.19;46.18;98242.19;4127945;28;21218;-84
2022/07/20 07:52:26;;;;;;;6.63;5.17;;;;;;;35.20;46.46;98243.00;4110032;28;20632;-83
2022/07/20 07:54:29;;;;;;;5.30;4.70;;;;;;;35.22;47.53;98246.28;4108754;28;20641;-82
2022/07/20 07:56:33;;;;;;;5.90;5.30;;;;;;;35.32;46.97;98237.16;4107431;28;21160;-82
2022/07/20 07:58:37;;;;;;;5.63;5.13;;;;;;;35.46;47.83;98235.69;4110014;28;21223;-82
2022/07/20 08:00:41;;;;;;;5.47;4.97;;;;;;;35.59;46.98;98239.88;4110507;28;20648;-83
2022/07/20 08:02:44;;;;;;;5.40;4.90;;;;;;;35.75;46.34;98236.22;4112049;28;20715;-83
2022/07/20 08:04:48;;;;;;;9.10;5.30;;;;;;;35.86;47.49;98234.16;4114696;28;20644;-83
2022/07/20 08:06:51;;;;;;;8.60;5.20;;;;;;;35.95;45.42;98238.03;4123559;28;20664;-83
2022/07/20 08:08:54;;;;;;;6.07;5.00;;;;;;;36.03;46.54;98232.09;4112228;28;21259;-83
2022/07/20 08:11:04;;;;;;;5.60;4.90;;;;;;;36.03;46.17;98240.25;4106369;28;20633;-82
2022/07/20 08:13:07;;;;;;;7.60;5.70;;;;;;;36.14;45.48;98230.28;4104721;28;20625;-83
2022/07/20 08:15:12;;;;;;;6.93;5.53;;;;;;;36.22;46.02;98238.75;4124085;28;20636;-82
2022/07/20 08:17:15;;;;;;;5.50;5.10;;;;;;;36.22;46.97;98238.75;4127922;28;20624;-83
2022/07/20 08:19:19;;;;;;;5.50;5.00;;;;;;;36.23;45.26;98229.50;4112662;28;20637;-83
2022/07/20 08:21:22;;;;;;;5.70;5.20;;;;;;;36.31;44.57;98227.16;4127902;28;20646;-83
2022/07/20 08:23:25;;;;;;;7.00;5.40;;;;;;;36.41;46.39;98231.81;4107385;28;20675;-83
2022/07/20 08:25:28;;;;;;;5.97;5.40;;;;;;;36.46;45.82;98224.50;4113339;28;20644;-83
2022/07/20 08:27:31;;;;;;;5.27;4.77;;;;;;;36.57;44.15;98228.91;4127457;28;21210;-83
2022/07/20 08:29:34;;;;;;;6.90;5.40;;;;;;;36.66;45.74;98227.31;4125265;28;20645;-82
2022/07/20 08:31:39;;;;;;;5.77;5.17;;;;;;;36.64;45.75;98218.59;4122178;28;20639;-83
2022/07/20 08:33:42;;;;;;;5.80;5.03;;;;;;;36.71;44.47;98219.19;4108683;28;20643;-82
2022/07/20 08:35:46;;;;;;;7.17;6.43;;;;;;;36.73;45.42;98224.38;4093977;28;20701;-82
2022/07/20 08:37:49;;;;;;;8.07;5.27;;;;;;;36.74;45.57;98224.91;4088801;28;20766;-82
2022/07/20 08:39:52;;;;;;;6.07;5.33;;;;;;;36.76;44.48;98225.50;4124777;28;20628;-83
2022/07/20 08:41:55;;;;;;;5.37;4.90;;;;;;;36.77;45.83;98220.84;4091667;28;20636;-82
2022/07/20 08:43:58;;;;;;;5.70;5.07;;;;;;;36.86;45.62;98224.69;4107770;28;21066;-83
2022/07/20 08:46:02;;;;;;;5.40;4.90;;;;;;;36.97;44.44;98227.19;4126068;28;20663;-82
2022/07/20 08:48:08;;;;;;;7.23;5.40;;;;;;;36.98;44.66;98230.72;4110220;28;20633;-82
2022/07/20 08:50:12;;;;;;;6.90;4.70;;;;;;;36.98;43.82;98223.38;4110532;28;20634;-83
2022/07/20 08:52:16;;;;;;;7.63;5.60;;;;;;;36.95;44.06;98223.09;4109251;28;20652;-83
2022/07/20 08:54:19;;;;;;;5.43;4.90;;;;;;;37.08;45.11;98230.72;4123832;28;21035;-82
2022/07/20 08:56:22;;;;;;;6.30;5.30;;;;;;;37.10;44.40;98221.22;4106937;28;20683;-83
2022/07/20 08:58:26;;;;;;;6.33;5.20;;;;;;;37.00;43.78;98221.22;4123685;28;21407;-83
2022/07/20 09:00:29;;;;;;;9.00;5.33;;;;;;;36.91;43.44;98217.38;4089508;28;20652;-82
2022/07/20 09:02:48;;;;;;;8.30;6.00;;;;;;;36.96;43.37;98217.38;4124527;28;20658;-83
2022/07/20 09:04:55;;;;;;;6.30;5.70;;;;;;;36.88;43.58;98217.91;4106568;28;20668;-82
2022/07/20 09:06:58;;;;;;;7.57;5.50;;;;;;;36.87;44.43;98221.72;4106681;28;20684;-82
2022/07/20 09:09:02;;;;;;;9.30;5.77;;;;;;;36.94;44.05;98216.00;4123356;28;21195;-83
2022/07/20 09:11:05;;;;;;;7.10;5.67;;;;;;;36.96;45.12;98220.09;4121862;28;20653;-82
2022/07/20 09:13:13;;;;;;;8.10;4.97;;;;;;;36.92;45.78;98219.00;4126585;28;20675;-82
2022/07/20 09:15:20;;;;;;;5.90;5.33;;;;;;;36.93;45.02;98220.63;4107715;28;20695;-82
2022/07/20 09:17:25;;;;;;;6.00;5.40;;;;;;;36.97;44.96;98220.91;4120793;28;20628;-83
2022/07/20 09:19:28;;;;;;;6.23;5.63;;;;;;;37.06;44.61;98222.81;4123797;28;20640;-83
2022/07/20 09:21:38;;;;;;;9.77;5.33;;;;;;;37.10;44.61;98225.84;4111293;28;20628;-83
2022/07/20 09:23:48;;;;;;;6.07;5.47;;;;;;;37.13;43.53;98225.31;4108172;28;22355;-82
2022/07/20 09:25:55;;;;;;;7.37;5.33;;;;;;;37.04;44.32;98222.28;4113405;28;20662;-82
2022/07/20 09:27:58;;;;;;;7.20;5.50;;;;;;;37.03;45.49;98228.81;4130074;28;21215;-82
2022/07/20 09:30:10;;;;;;;7.10;5.80;;;;;;;36.94;45.45;98232.34;4121839;28;20646;-83
2022/07/20 09:32:13;;;;;;;8.20;5.93;;;;;;;36.87;44.36;98224.44;4094660;28;20637;-83
2022/07/20 09:34:22;;;;;;;7.93;6.13;;;;;;;36.87;45.10;98227.16;4092399;29;20640;-83
2022/07/20 09:36:28;;;;;;;6.73;6.03;;;;;;;37.01;44.94;98232.91;4109886;28;21314;-83
2022/07/20 09:38:34;;;;;;;11.90;6.20;;;;;;;37.10;44.26;98223.94;4120217;28;21206;-83
2022/07/20 09:40:41;;;;;;;8.27;6.90;;;;;;;37.14;43.16;98226.94;4125221;28;20667;-83
2022/07/20 09:42:47;;;;;;;10.10;6.00;;;;;;;37.14;43.53;98222.31;4122738;28;20644;-83
2022/07/20 09:44:50;;;;;;;6.53;5.93;;;;;;;37.18;43.15;98225.34;4094056;29;21275;-83
2022/07/20 09:46:57;;;;;;;8.20;6.10;;;;;;;37.22;44.06;98224.53;4106254;28;21267;-83